Keizer, Oregon
Current Conditions -  °F | °C
As of 6:16 AM on Friday 28 Nov 2014 (Local Time) from KSLE Reporting Station
Light Rain Light Rain  
Wind Chill: 53°   Ceiling: 3600
Heat Index: 53°   Visibility: 10mi
Dew Point: 49°   Wind: 22mph
Humidity: 86%   Direction: 170°S
Pressure: 29.68"   Gusts: 29mph
Location:  45°N, 123.02°W
Report Text: KSLE 281416Z AUTO 17019G25KT 10SM -RA FEW014 SCT027 OVC036 12/09 A2968 RMK AO2 PK WND 17026/1405 P0001 T01170094
Loading
Personal Weather Stations






























Interactive Weather Map New forecast layout! Learn more

10-Day Weather Forecast

Advertisements
Track Severe Weather on mobile